Time;durP1;ratioP1;P1;durP2;ratioP2;P2;SDS_P1;SDS_P2;PMS_P1;PMS_P2;Temp;Humidity;BMP_temperature;BMP_pressure;BME280_temperature;BME280_humidity;BME280_pressure;Samples;Min_cycle;Max_cycle;Signal;HPM_P1;HPM_P2
2022/01/16 00:00:16;;;;;;;72.50;41.03;;;2.70;99.90;;;;;;5076541;28;20032;-63
2022/01/16 00:05:21;;;;;;;69.80;39.40;;;2.70;99.90;;;;;;5076864;28;20079;-62
2022/01/16 00:07:47;;;;;;;70.47;38.55;;;2.70;99.90;;;;;;5077187;28;20064;-64
2022/01/16 00:10:13;;;;;;;73.43;39.95;;;2.70;99.90;;;;;;5079927;28;20036;-63
2022/01/16 00:12:39;;;;;;;72.35;40.25;;;2.60;99.90;;;;;;5080629;28;20051;-63
2022/01/16 00:15:05;;;;;;;69.93;40.80;;;2.50;99.90;;;;;;5080539;28;20028;-62
2022/01/16 00:17:35;;;;;;;70.90;40.28;;;2.40;99.90;;;;;;5080522;28;20033;-62
2022/01/16 00:20:02;;;;;;;68.88;39.38;;;2.40;99.90;;;;;;5080505;28;20056;-62
2022/01/16 00:22:32;;;;;;;67.65;38.28;;;2.40;99.90;;;;;;5080384;28;20093;-63
2022/01/16 00:25:02;;;;;;;66.30;38.67;;;2.40;99.90;;;;;;5079697;28;20078;-62
2022/01/16 00:27:28;;;;;;;70.75;38.65;;;2.40;99.90;;;;;;5080695;28;20036;-63
2022/01/16 00:29:53;;;;;;;67.05;38.55;;;2.40;99.90;;;;;;5080591;28;20036;-63
2022/01/16 00:32:19;;;;;;;69.97;39.15;;;2.40;99.90;;;;;;5080428;28;20044;-63
2022/01/16 00:34:45;;;;;;;67.25;38.08;;;2.40;99.90;;;;;;5080104;28;20060;-63
2022/01/16 00:37:11;;;;;;;68.55;37.28;;;2.30;99.90;;;;;;5062749;28;20036;-62
2022/01/16 00:39:37;;;;;;;71.13;38.40;;;2.30;99.90;;;;;;5080152;28;20024;-63
2022/01/16 00:42:03;;;;;;;70.47;38.47;;;2.30;99.90;;;;;;5079995;28;20046;-63
2022/01/16 00:44:29;;;;;;;71.00;38.50;;;2.20;99.90;;;;;;5080648;28;20075;-63
2022/01/16 00:46:54;;;;;;;71.53;38.35;;;2.10;99.90;;;;;;5079282;28;20036;-63
2022/01/16 00:49:20;;;;;;;78.45;41.97;;;2.10;99.90;;;;;;5079321;28;20036;-63
2022/01/16 00:51:46;;;;;;;70.40;39.47;;;2.00;99.90;;;;;;5079772;28;20054;-62
2022/01/16 00:54:12;;;;;;;73.30;39.25;;;2.00;99.90;;;;;;5079889;28;20036;-63
2022/01/16 00:56:38;;;;;;;76.35;40.03;;;2.00;99.90;;;;;;5079834;28;20032;-63
2022/01/16 00:59:04;;;;;;;79.43;41.15;;;2.00;99.90;;;;;;5079812;28;20037;-63
2022/01/16 01:01:30;;;;;;;79.18;41.88;;;2.10;99.90;;;;;;5079727;28;20051;-63
2022/01/16 01:03:57;;;;;;;75.00;39.97;;;2.10;99.90;;;;;;5079770;28;20040;-63
2022/01/16 01:06:23;;;;;;;77.50;41.35;;;2.10;99.90;;;;;;5079587;28;20029;-63
2022/01/16 01:08:49;;;;;;;75.43;39.65;;;2.10;99.90;;;;;;5079554;28;20032;-62
2022/01/16 01:11:18;;;;;;;79.60;41.25;;;2.10;99.90;;;;;;5062217;28;20182;-62
2022/01/16 01:16:48;;;;;;;76.25;41.08;;;2.10;99.90;;;;;;5079541;28;20237;-63
2022/01/16 01:19:14;;;;;;;77.30;40.20;;;2.20;99.90;;;;;;5078674;28;20063;-63
2022/01/16 01:21:40;;;;;;;80.20;42.17;;;2.30;99.90;;;;;;5079134;28;20032;-63
2022/01/16 01:24:06;;;;;;;81.10;40.92;;;2.40;99.90;;;;;;5079362;28;20055;-63
2022/01/16 01:26:37;;;;;;;73.35;40.22;;;2.50;99.90;;;;;;5079204;28;20128;-63
2022/01/16 01:29:03;;;;;;;73.13;39.05;;;2.60;99.90;;;;;;5079265;28;20032;-63
2022/01/16 01:31:30;;;;;;;73.72;39.97;;;2.80;99.90;;;;;;5079117;28;20041;-63
2022/01/16 01:33:57;;;;;;;75.13;39.85;;;2.80;99.90;;;;;;5078310;28;20055;-63
2022/01/16 01:36:23;;;;;;;71.88;39.05;;;2.80;99.90;;;;;;5079227;28;20392;-63
2022/01/16 01:38:49;;;;;;;71.07;38.35;;;2.80;99.90;;;;;;5061636;28;20102;-65
2022/01/16 01:41:15;;;;;;;70.95;38.63;;;2.80;99.90;;;;;;5079336;28;20423;-63
2022/01/16 01:51:44;;;;;;;68.93;37.50;;;2.90;99.90;;;;;;5078285;28;20032;-63
2022/01/16 01:54:12;;;;;;;51.50;28.47;;;3.00;99.90;;;;;;5078931;28;20089;-62
2022/01/16 01:56:39;;;;;;;67.47;37.00;;;3.20;99.90;;;;;;5077970;28;20028;-62
2022/01/16 01:59:07;;;;;;;74.53;38.35;;;3.30;99.90;;;;;;5078706;28;20028;-61
2022/01/16 02:01:33;;;;;;;66.10;35.17;;;3.30;99.90;;;;;;5078619;28;20153;-62
2022/01/16 02:03:59;;;;;;;63.50;37.75;;;3.20;99.90;;;;;;5078572;28;20431;-62
2022/01/16 02:06:27;;;;;;;61.35;35.33;;;3.20;99.90;;;;;;5079065;28;20079;-62
2022/01/16 02:08:58;;;;;;;60.67;35.83;;;3.10;99.90;;;;;;5078424;28;20032;-61
2022/01/16 02:11:28;;;;;;;63.42;36.40;;;3.10;99.90;;;;;;5078540;28;20036;-62
2022/01/16 02:14:01;;;;;;;65.72;35.20;;;3.40;99.90;;;;;;5078383;28;20024;-62
2022/01/16 02:28:23;;;;;;;61.65;33.85;;;3.80;99.90;;;;;;5078316;28;20028;-63
2022/01/16 02:34:31;;;;;;;59.95;33.90;;;3.50;99.90;;;;;;5078005;28;20029;-63
2022/01/16 02:36:20;;;;;;;59.72;34.08;;;3.40;99.90;;;;;;5077802;28;20315;-63
2022/01/16 02:38:47;;;;;;;62.72;34.85;;;3.40;99.90;;;;;;5077981;28;20040;-64
2022/01/16 02:41:13;;;;;;;62.08;34.10;;;3.50;99.90;;;;;;5077888;28;20024;-63
2022/01/16 02:43:45;;;;;;;57.95;34.45;;;3.50;99.90;;;;;;5077739;28;20435;-63
2022/01/16 02:48:40;;;;;;;62.92;34.50;;;3.30;99.90;;;;;;5077813;28;20063;-62
2022/01/16 02:51:06;;;;;;;64.03;36.13;;;3.30;99.90;;;;;;5076999;28;20040;-63
2022/01/16 02:53:32;;;;;;;64.00;35.13;;;3.30;99.90;;;;;;5077559;28;20025;-64
2022/01/16 02:55:59;;;;;;;61.97;35.47;;;3.30;99.90;;;;;;5077609;28;20036;-63
2022/01/16 02:58:25;;;;;;;59.60;35.58;;;3.40;99.90;;;;;;5077644;28;20036;-63
2022/01/16 03:00:51;;;;;;;64.88;35.60;;;3.40;99.90;;;;;;5077511;28;20396;-63
2022/01/16 03:03:17;;;;;;;63.95;35.38;;;3.40;99.90;;;;;;5077626;28;20037;-63
2022/01/16 03:05:42;;;;;;;66.80;36.47;;;3.40;99.90;;;;;;5060041;28;20044;-62
2022/01/16 03:08:08;;;;;;;65.07;35.42;;;3.60;99.90;;;;;;5077314;28;20405;-63
2022/01/16 03:13:03;;;;;;;61.15;35.58;;;3.60;99.90;;;;;;5076908;28;20029;-63
2022/01/16 03:15:29;;;;;;;65.10;35.92;;;3.50;99.90;;;;;;5077283;28;20030;-63
2022/01/16 03:23:08;;;;;;;61.50;35.78;;;3.60;99.90;;;;;;5077114;28;20044;-62
2022/01/16 03:25:34;;;;;;;60.45;34.30;;;3.60;99.90;;;;;;5077156;28;20035;-64
2022/01/16 03:28:00;;;;;;;64.70;36.80;;;3.60;99.90;;;;;;5077566;28;20033;-64
2022/01/16 03:30:26;;;;;;;63.35;35.92;;;3.60;99.90;;;;;;5076311;28;20119;-63
2022/01/16 03:32:52;;;;;;;61.53;35.30;;;3.60;99.90;;;;;;5077307;28;20028;-62
2022/01/16 03:35:18;;;;;;;65.18;35.38;;;3.60;99.90;;;;;;5077112;28;20060;-62
2022/01/16 03:37:44;;;;;;;56.75;33.90;;;3.50;99.90;;;;;;5077042;28;20029;-63
2022/01/16 03:40:11;;;;;;;65.45;35.53;;;3.50;99.90;;;;;;5076981;28;20028;-62
2022/01/16 03:42:41;;;;;;;62.70;35.00;;;3.40;99.90;;;;;;5076809;28;20397;-63
2022/01/16 03:45:08;;;;;;;63.53;35.33;;;3.50;99.90;;;;;;5076833;28;20036;-62
2022/01/16 03:47:35;;;;;;;64.93;35.85;;;3.60;99.90;;;;;;5077340;28;20291;-63
2022/01/16 03:50:03;;;;;;;65.20;35.83;;;3.50;99.90;;;;;;5076881;28;20041;-63
2022/01/16 03:52:28;;;;;;;61.72;34.88;;;3.40;99.90;;;;;;5076098;28;20400;-63
2022/01/16 03:54:54;;;;;;;68.07;36.45;;;3.50;99.90;;;;;;5059465;28;20200;-63
2022/01/16 03:57:20;;;;;;;59.63;35.58;;;3.50;99.90;;;;;;5076808;28;20029;-63
2022/01/16 03:59:46;;;;;;;67.30;36.17;;;3.60;99.90;;;;;;5077352;28;20031;-63
2022/01/16 04:02:12;;;;;;;65.88;37.40;;;3.50;99.90;;;;;;5076001;28;20115;-63
2022/01/16 04:04:38;;;;;;;63.25;35.42;;;3.50;99.90;;;;;;5076061;28;20111;-63
2022/01/16 04:07:05;;;;;;;65.28;35.67;;;3.50;99.90;;;;;;5076594;28;20403;-63
2022/01/16 04:09:31;;;;;;;65.43;36.05;;;3.50;99.90;;;;;;5076724;28;20029;-63
2022/01/16 04:11:58;;;;;;;65.35;36.15;;;3.40;99.90;;;;;;5076697;28;20032;-63
2022/01/16 04:17:18;;;;;;;70.40;36.65;;;3.50;99.90;;;;;;5076596;28;20094;-63
2022/01/16 04:19:45;;;;;;;63.45;37.17;;;3.60;99.90;;;;;;5059228;28;20368;-63
2022/01/16 04:22:12;;;;;;;64.70;36.28;;;3.50;99.90;;;;;;5075849;28;20075;-63
2022/01/16 04:24:38;;;;;;;67.70;36.08;;;3.50;99.90;;;;;;5076542;28;20035;-63
2022/01/16 04:27:05;;;;;;;65.47;35.97;;;3.50;99.90;;;;;;5076686;28;20379;-63
2022/01/16 04:29:31;;;;;;;64.50;34.30;;;3.50;99.90;;;;;;5076494;28;20063;-63
2022/01/16 04:31:57;;;;;;;66.80;35.22;;;3.50;99.90;;;;;;5076471;28;20356;-62
2022/01/16 04:34:23;;;;;;;68.57;36.35;;;3.40;99.90;;;;;;5075625;28;20040;-62
2022/01/16 04:36:48;;;;;;;61.63;35.47;;;3.40;99.90;;;;;;5076466;28;20040;-63
2022/01/16 04:39:20;;;;;;;66.22;35.97;;;3.40;99.90;;;;;;5076401;28;20024;-62
2022/01/16 04:44:31;;;;;;;65.28;35.92;;;3.60;99.90;;;;;;5076551;28;20035;-62
2022/01/16 04:46:58;;;;;;;66.95;35.67;;;3.70;99.90;;;;;;5076249;28;20064;-62
2022/01/16 04:49:24;;;;;;;64.57;34.85;;;3.70;99.90;;;;;;5076308;28;20123;-61
2022/01/16 04:51:49;;;;;;;65.65;35.33;;;3.70;99.90;;;;;;5076695;28;20068;-62
2022/01/16 04:54:15;;;;;;;64.72;34.00;;;3.70;99.90;;;;;;5076810;28;20078;-62
2022/01/16 04:56:42;;;;;;;69.82;35.28;;;3.70;99.90;;;;;;5079067;28;20028;-62
2022/01/16 04:59:07;;;;;;;64.00;34.65;;;3.70;99.90;;;;;;5079853;28;20028;-63
2022/01/16 05:01:34;;;;;;;66.70;34.50;;;3.70;99.90;;;;;;5079102;28;20040;-62
2022/01/16 05:03:59;;;;;;;60.90;33.50;;;3.80;99.90;;;;;;5079713;28;20385;-61
2022/01/16 05:06:25;;;;;;;64.35;32.42;;;4.00;99.90;;;;;;5079607;28;20055;-62
2022/01/16 05:08:51;;;;;;;65.80;32.53;;;4.10;99.90;;;;;;5079666;28;20075;-62
2022/01/16 05:11:24;;;;;;;64.97;33.03;;;4.10;99.90;;;;;;5079682;28;20048;-63
2022/01/16 05:19:10;;;;;;;61.38;32.60;;;3.70;99.90;;;;;;5079482;28;20055;-63
2022/01/16 05:21:38;;;;;;;63.17;32.58;;;3.70;99.90;;;;;;5079545;28;20035;-63
2022/01/16 05:24:08;;;;;;;68.03;33.67;;;3.70;99.90;;;;;;5079334;28;20041;-62
2022/01/16 05:26:35;;;;;;;67.93;33.15;;;3.90;99.90;;;;;;5078569;28;20047;-62
2022/01/16 05:29:01;;;;;;;69.63;33.08;;;4.00;99.90;;;;;;5079333;28;20017;-63
2022/01/16 05:31:27;;;;;;;59.65;32.20;;;4.10;99.90;;;;;;5079266;28;20024;-62
2022/01/16 05:33:53;;;;;;;58.50;32.80;;;4.10;99.90;;;;;;5079005;28;20043;-63
2022/01/16 05:36:20;;;;;;;61.83;31.80;;;4.00;99.90;;;;;;5079162;28;20044;-63
2022/01/16 05:38:46;;;;;;;62.35;31.77;;;3.90;99.90;;;;;;5079133;28;20341;-63
2022/01/16 05:41:12;;;;;;;63.42;32.40;;;3.80;99.90;;;;;;5078321;28;20404;-63
2022/01/16 05:43:38;;;;;;;63.60;32.47;;;3.70;99.90;;;;;;5078974;28;20029;-63
2022/01/16 05:46:04;;;;;;;66.07;32.13;;;3.60;99.90;;;;;;5061567;28;20041;-63
2022/01/16 05:48:30;;;;;;;65.93;32.03;;;3.50;99.90;;;;;;5061882;28;20032;-63
2022/01/16 05:50:56;;;;;;;64.70;32.50;;;3.40;99.90;;;;;;5078877;28;20094;-62
2022/01/16 05:53:22;;;;;;;63.80;32.95;;;3.40;99.90;;;;;;5078818;28;20407;-62
2022/01/16 05:55:48;;;;;;;68.90;33.75;;;3.40;99.90;;;;;;5079068;28;20028;-63
2022/01/16 05:58:14;;;;;;;63.67;33.85;;;3.40;99.90;;;;;;5078694;28;20474;-65
2022/01/16 06:00:41;;;;;;;67.13;34.10;;;3.50;99.90;;;;;;5078762;28;20047;-62
2022/01/16 06:03:09;;;;;;;69.47;33.60;;;3.40;99.90;;;;;;5078903;28;20030;-63
2022/01/16 06:05:35;;;;;;;72.45;34.95;;;3.40;99.90;;;;;;5044786;28;20052;-63
2022/01/16 06:08:07;;;;;;;66.07;34.17;;;3.40;99.90;;;;;;5061171;28;20024;-64
2022/01/16 06:10:33;;;;;;;65.32;33.00;;;3.40;99.90;;;;;;5062233;28;20090;-63
2022/01/16 06:12:58;;;;;;;68.45;34.00;;;3.40;99.90;;;;;;5061132;28;20036;-63
2022/01/16 06:15:24;;;;;;;65.40;33.85;;;3.40;99.90;;;;;;5061182;28;20430;-63
2022/01/16 06:17:50;;;;;;;66.80;34.53;;;3.40;99.90;;;;;;5078287;28;20453;-63
2022/01/16 06:20:16;;;;;;;69.70;33.60;;;3.30;99.90;;;;;;5061036;28;20037;-64
2022/01/16 06:22:43;;;;;;;68.65;32.80;;;3.30;99.90;;;;;;5078218;28;20036;-64
2022/01/16 06:25:10;;;;;;;78.45;35.35;;;3.30;99.90;;;;;;5078093;28;20048;-64
2022/01/16 06:27:36;;;;;;;76.07;35.75;;;3.20;99.90;;;;;;5077304;28;20107;-64
2022/01/16 06:30:07;;;;;;;79.70;35.55;;;3.20;99.90;;;;;;5078105;28;20116;-64
2022/01/16 06:32:33;;;;;;;82.28;34.85;;;3.10;99.90;;;;;;5078386;28;20089;-64
2022/01/16 06:34:59;;;;;;;73.75;36.35;;;3.20;99.90;;;;;;5077840;28;20368;-63
2022/01/16 06:37:25;;;;;;;72.85;35.42;;;3.20;99.90;;;;;;5078351;28;20029;-63
2022/01/16 06:39:51;;;;;;;75.88;35.92;;;3.20;99.90;;;;;;5077898;28;20033;-64
2022/01/16 06:42:16;;;;;;;83.07;36.65;;;3.20;99.90;;;;;;5078290;28;20031;-65
2022/01/16 06:44:43;;;;;;;77.20;36.20;;;3.20;99.90;;;;;;5077774;28;20060;-63
2022/01/16 06:47:09;;;;;;;82.68;36.13;;;3.20;99.90;;;;;;5077564;28;20415;-64
2022/01/16 06:49:34;;;;;;;81.57;37.45;;;3.30;99.90;;;;;;5076933;28;20032;-63
2022/01/16 06:52:00;;;;;;;80.45;36.40;;;3.30;99.90;;;;;;5077688;28;20032;-65
2022/01/16 06:54:26;;;;;;;81.43;36.63;;;3.30;99.90;;;;;;5076822;28;20029;-63
2022/01/16 06:56:52;;;;;;;71.13;35.35;;;3.30;99.90;;;;;;5077626;28;20028;-63
2022/01/16 06:59:18;;;;;;;71.53;33.92;;;3.40;99.90;;;;;;5076822;28;20040;-64
2022/01/16 07:01:44;;;;;;;73.50;34.65;;;3.50;99.90;;;;;;5077545;28;20032;-63
2022/01/16 07:04:10;;;;;;;82.15;36.78;;;3.50;99.90;;;;;;5077426;28;20062;-65
2022/01/16 07:06:35;;;;;;;76.70;35.22;;;3.50;99.90;;;;;;5077201;28;20056;-63
2022/01/16 07:09:01;;;;;;;78.97;35.92;;;3.50;99.90;;;;;;5076661;28;20068;-64
2022/01/16 07:11:27;;;;;;;85.45;36.13;;;3.50;99.90;;;;;;5076537;28;20459;-64
2022/01/16 07:13:53;;;;;;;80.05;33.97;;;3.70;99.90;;;;;;5076535;28;20028;-64
2022/01/16 07:16:19;;;;;;;83.63;36.38;;;3.60;99.90;;;;;;5076335;28;20041;-63
2022/01/16 07:18:45;;;;;;;78.63;34.22;;;3.70;99.90;;;;;;5075974;28;20399;-63
2022/01/16 07:21:13;;;;;;;82.28;35.47;;;3.70;99.90;;;;;;5077719;28;20296;-64
2022/01/16 07:23:45;;;;;;;75.28;34.38;;;3.70;99.90;;;;;;5076530;28;20051;-63
2022/01/16 07:26:11;;;;;;;79.55;34.03;;;3.80;99.90;;;;;;5077084;28;20036;-63
2022/01/16 07:28:37;;;;;;;75.97;33.05;;;3.80;99.90;;;;;;5076279;28;20120;-63
2022/01/16 07:31:03;;;;;;;77.80;34.92;;;3.80;99.90;;;;;;5077549;28;20029;-64
2022/01/16 07:33:29;;;;;;;79.75;34.50;;;3.70;99.90;;;;;;5076759;28;20036;-64
2022/01/16 07:35:55;;;;;;;82.05;34.70;;;3.60;99.90;;;;;;5076313;28;20036;-62
2022/01/16 07:38:22;;;;;;;80.40;34.40;;;3.70;99.90;;;;;;5077088;28;20404;-63
2022/01/16 07:40:48;;;;;;;79.43;33.53;;;3.70;99.90;;;;;;5076237;28;20457;-63
2022/01/16 07:43:14;;;;;;;81.43;34.80;;;3.70;99.90;;;;;;5076159;28;20437;-63
2022/01/16 07:45:40;;;;;;;83.75;36.70;;;3.70;99.90;;;;;;5076875;28;20032;-63
2022/01/16 07:48:07;;;;;;;81.53;35.08;;;3.80;99.90;;;;;;5076219;28;20037;-64
2022/01/16 07:50:37;;;;;;;80.53;34.30;;;3.90;99.90;;;;;;5059406;28;20025;-64
2022/01/16 07:53:04;;;;;;;81.88;34.67;;;3.90;99.90;;;;;;5076794;28;20127;-65
2022/01/16 07:55:30;;;;;;;81.43;34.92;;;4.00;99.90;;;;;;5076063;28;20090;-63
2022/01/16 07:57:57;;;;;;;81.65;34.05;;;3.90;99.90;;;;;;5075965;28;20051;-64
2022/01/16 08:00:25;;;;;;;81.80;36.40;;;3.90;99.90;;;;;;5075935;28;20071;-63
2022/01/16 08:02:51;;;;;;;79.47;34.58;;;4.00;99.90;;;;;;5076869;28;20099;-62
2022/01/16 08:05:19;;;;;;;80.28;34.45;;;4.00;99.90;;;;;;5076253;28;20308;-63
2022/01/16 08:07:46;;;;;;;78.07;34.72;;;4.10;99.90;;;;;;5076663;28;20079;-68
2022/01/16 08:10:12;;;;;;;78.63;33.67;;;4.10;99.90;;;;;;5076473;28;20036;-68
2022/01/16 08:12:38;;;;;;;77.78;33.78;;;4.20;99.90;;;;;;5076715;28;20284;-68
2022/01/16 08:15:06;;;;;;;77.00;33.58;;;4.20;99.90;;;;;;5075768;28;20025;-67
2022/01/16 08:17:32;;;;;;;83.13;33.67;;;4.10;99.90;;;;;;5075925;28;20033;-68
2022/01/16 08:19:58;;;;;;;80.45;34.05;;;4.10;99.90;;;;;;5075851;28;20044;-65
2022/01/16 08:22:24;;;;;;;73.63;34.20;;;4.00;99.90;;;;;;5076535;28;20301;-66
2022/01/16 08:24:50;;;;;;;77.20;34.38;;;4.20;99.90;;;;;;5075516;28;20029;-67
2022/01/16 08:27:16;;;;;;;75.18;34.00;;;4.30;99.90;;;;;;5076091;28;20123;-66
2022/01/16 08:29:42;;;;;;;74.05;32.05;;;4.30;99.90;;;;;;5079270;28;20043;-66
2022/01/16 08:32:09;;;;;;;72.28;32.55;;;4.40;99.90;;;;;;5080550;28;20292;-66
2022/01/16 08:34:35;;;;;;;68.22;31.80;;;4.50;99.90;;;;;;5080046;28;20059;-66
2022/01/16 08:37:01;;;;;;;69.80;32.33;;;4.50;99.90;;;;;;5080615;28;20028;-66
2022/01/16 08:39:27;;;;;;;73.85;32.10;;;4.40;99.90;;;;;;5079555;28;20101;-67
2022/01/16 08:41:53;;;;;;;68.15;32.80;;;4.50;99.90;;;;;;5079354;28;20037;-66
2022/01/16 08:44:19;;;;;;;67.80;31.48;;;4.60;99.90;;;;;;5079283;28;20046;-67
2022/01/16 08:46:46;;;;;;;71.65;32.92;;;4.60;99.90;;;;;;5080157;28;20028;-67
2022/01/16 08:49:12;;;;;;;72.38;34.03;;;4.60;99.90;;;;;;5079989;28;20040;-66
2022/01/16 08:51:38;;;;;;;65.03;31.73;;;4.70;99.90;;;;;;5079365;28;20082;-67
2022/01/16 08:54:04;;;;;;;69.10;33.65;;;4.90;99.90;;;;;;5062516;28;20111;-67
2022/01/16 08:56:30;;;;;;;72.53;32.53;;;4.70;99.90;;;;;;5079812;28;20042;-67
2022/01/16 08:58:56;;;;;;;74.18;33.50;;;4.70;99.90;;;;;;5079755;28;20033;-67
2022/01/16 09:01:21;;;;;;;78.43;35.10;;;4.80;99.90;;;;;;5079741;28;20116;-69
2022/01/16 09:03:47;;;;;;;75.40;35.22;;;4.60;99.90;;;;;;5079665;28;20034;-65
2022/01/16 09:06:15;;;;;;;79.07;34.58;;;4.70;99.90;;;;;;5079002;28;20036;-67
2022/01/16 09:08:41;;;;;;;78.35;34.90;;;4.70;99.90;;;;;;5079583;28;20086;-66
2022/01/16 09:11:07;;;;;;;72.15;33.33;;;4.70;99.90;;;;;;5079313;28;20326;-68
2022/01/16 09:13:33;;;;;;;76.03;34.33;;;4.60;99.90;;;;;;5079521;28;20024;-67
2022/01/16 09:16:00;;;;;;;79.53;33.83;;;4.50;99.90;;;;;;5079572;28;20028;-68
2022/01/16 09:18:27;;;;;;;74.75;33.40;;;4.30;99.90;;;;;;5079410;28;20326;-67
2022/01/16 09:20:53;;;;;;;76.93;33.13;;;4.20;99.90;;;;;;5079464;28;20052;-67
2022/01/16 09:23:20;;;;;;;74.75;33.38;;;4.20;99.90;;;;;;5078931;28;20041;-67
2022/01/16 09:25:46;;;;;;;78.75;32.88;;;4.20;99.90;;;;;;5062323;28;20043;-68
2022/01/16 09:28:12;;;;;;;81.20;33.92;;;4.30;99.90;;;;;;5078571;28;20028;-68
2022/01/16 09:30:38;;;;;;;71.30;31.63;;;4.40;99.90;;;;;;5079746;28;20384;-68
2022/01/16 09:33:04;;;;;;;70.03;31.92;;;4.60;99.90;;;;;;5079476;28;20033;-69
2022/01/16 09:35:33;;;;;;;72.50;30.05;;;4.50;99.90;;;;;;5078407;28;20056;-69
2022/01/16 09:38:04;;;;;;;74.13;30.20;;;4.40;99.90;;;;;;5078422;28;20056;-69
2022/01/16 09:40:30;;;;;;;65.00;30.08;;;4.50;99.90;;;;;;5078297;28;20044;-69
2022/01/16 09:42:56;;;;;;;69.55;29.73;;;4.50;99.90;;;;;;5079414;28;20052;-68
2022/01/16 09:45:24;;;;;;;63.00;29.67;;;4.40;99.90;;;;;;5079076;28;20107;-69
2022/01/16 09:47:50;;;;;;;72.80;29.30;;;4.40;99.90;;;;;;5078313;28;20479;-68
2022/01/16 09:50:19;;;;;;;59.13;27.92;;;4.50;99.90;;;;;;5078883;28;20082;-68
2022/01/16 09:52:47;;;;;;;63.90;28.73;;;4.60;99.90;;;;;;5078853;28;20042;-67
2022/01/16 09:55:13;;;;;;;62.08;28.33;;;4.60;99.90;;;;;;5078904;28;20311;-69
2022/01/16 09:57:40;;;;;;;58.85;26.05;;;4.60;99.90;;;;;;5077888;28;20032;-68
2022/01/16 10:00:09;;;;;;;61.28;28.23;;;4.50;99.90;;;;;;5077985;28;20093;-69
2022/01/16 10:02:44;;;;;;;57.88;26.92;;;4.70;99.90;;;;;;5078620;28;20033;-68
2022/01/16 10:05:36;;;;;;;60.50;27.20;;;4.70;99.90;;;;;;5061179;28;20040;-68
2022/01/16 10:08:25;;;;;;;60.83;27.35;;;4.70;99.90;;;;;;5078309;28;20051;-68
2022/01/16 10:10:51;;;;;;;57.03;25.67;;;4.60;99.90;;;;;;5077854;28;20040;-69
2022/01/16 10:13:23;;;;;;;60.58;27.75;;;4.50;99.90;;;;;;5077488;28;20028;-67
2022/01/16 10:15:57;;;;;;;58.15;27.63;;;4.70;99.90;;;;;;5078209;28;20047;-67
2022/01/16 10:18:34;;;;;;;56.75;26.55;;;4.80;99.90;;;;;;5077506;28;20043;-69
2022/01/16 10:21:00;;;;;;;55.70;27.00;;;4.80;99.90;;;;;;5078301;28;20440;-70
2022/01/16 10:23:26;;;;;;;53.13;27.08;;;4.80;99.90;;;;;;5078250;28;20095;-67
2022/01/16 10:25:52;;;;;;;53.78;26.33;;;4.80;99.90;;;;;;5078535;28;20031;-68
2022/01/16 10:28:23;;;;;;;54.03;26.25;;;4.90;99.90;;;;;;5078124;28;20392;-67
2022/01/16 10:30:54;;;;;;;50.75;25.50;;;4.90;99.90;;;;;;5078185;28;20029;-69
2022/01/16 10:33:23;;;;;;;56.42;26.20;;;4.80;99.90;;;;;;5078102;28;20024;-67
2022/01/16 10:35:50;;;;;;;56.05;25.65;;;4.70;99.90;;;;;;5060542;28;20059;-68
2022/01/16 10:38:22;;;;;;;52.35;25.98;;;4.70;99.90;;;;;;5077271;28;20078;-69
2022/01/16 10:40:52;;;;;;;53.33;26.05;;;4.70;99.90;;;;;;5077985;28;20035;-69
2022/01/16 10:43:21;;;;;;;53.03;27.40;;;4.80;99.90;;;;;;5077835;28;20036;-68
2022/01/16 10:45:51;;;;;;;54.25;27.63;;;4.80;99.90;;;;;;5077721;28;20029;-69
2022/01/16 10:48:23;;;;;;;52.97;26.70;;;4.80;99.90;;;;;;5077027;28;20040;-69
2022/01/16 10:50:50;;;;;;;58.83;29.10;;;4.90;99.90;;;;;;5078334;28;20051;-69
2022/01/16 10:53:24;;;;;;;54.70;26.75;;;5.10;99.90;;;;;;5075894;28;20092;-70
2022/01/16 10:55:56;;;;;;;50.03;26.52;;;5.40;99.90;;;;;;5077675;28;20362;-70
2022/01/16 10:58:37;;;;;;;51.40;26.65;;;5.40;99.90;;;;;;5076726;28;20400;-65
2022/01/16 11:01:13;;;;;;;50.17;26.95;;;5.40;99.90;;;;;;5077537;28;20036;-68
2022/01/16 11:03:45;;;;;;;52.17;26.42;;;5.30;99.90;;;;;;5077742;28;20029;-66
2022/01/16 11:06:12;;;;;;;51.08;27.33;;;5.40;99.90;;;;;;5076764;28;20093;-66
2022/01/16 11:08:38;;;;;;;51.50;27.08;;;5.50;99.90;;;;;;5077402;28;20029;-69
2022/01/16 11:11:06;;;;;;;47.38;25.65;;;5.30;99.90;;;;;;5077173;28;20327;-68
2022/01/16 11:13:35;;;;;;;52.95;27.00;;;5.10;99.90;;;;;;5060919;28;20055;-70
2022/01/16 11:16:07;;;;;;;53.65;27.48;;;4.90;99.90;;;;;;5076811;28;20060;-68
2022/01/16 11:18:35;;;;;;;66.43;34.85;;;4.80;99.90;;;;;;5077298;28;20030;-70
2022/01/16 11:23:32;;;;;;;46.75;27.17;;;5.20;99.90;;;;;;5077159;28;20392;-70
2022/01/16 11:26:04;;;;;;;48.42;25.88;;;5.00;99.90;;;;;;5077714;28;20028;-68
2022/01/16 11:28:30;;;;;;;48.13;26.92;;;5.00;99.90;;;;;;5059776;28;20082;-70
2022/01/16 11:30:59;;;;;;;49.13;26.35;;;5.20;99.90;;;;;;5076539;28;20077;-70
2022/01/16 11:33:27;;;;;;;45.28;25.25;;;5.30;99.90;;;;;;5077456;28;20081;-71
2022/01/16 11:36:20;;;;;;;45.10;24.40;;;5.10;99.90;;;;;;5076286;28;20048;-70
2022/01/16 11:38:49;;;;;;;;;;;5.00;99.90;;;;;;5077513;28;20062;-68
2022/01/16 11:41:16;;;;;;;41.97;24.25;;;5.30;99.90;;;;;;5076986;28;19995;-67
2022/01/16 11:43:50;;;;;;;44.45;25.45;;;5.40;99.90;;;;;;5076193;28;20037;-66
2022/01/16 11:46:24;;;;;;;48.45;25.90;;;5.50;99.90;;;;;;5077517;28;20162;-68
2022/01/16 11:48:59;;;;;;;49.47;25.90;;;5.40;99.90;;;;;;5076130;28;20040;-65
2022/01/16 11:51:34;;;;;;;44.40;25.80;;;5.10;99.90;;;;;;5076924;28;20033;-69
2022/01/16 11:54:15;;;;;;;50.55;27.15;;;4.70;99.90;;;;;;5059311;28;20047;-62
2022/01/16 11:56:41;;;;;;;45.17;25.80;;;4.70;99.90;;;;;;5076672;28;20033;-65
2022/01/16 11:59:20;;;;;;;53.20;27.83;;;4.60;99.90;;;;;;5076740;28;20451;-66
2022/01/16 12:02:02;;;;;;;53.28;28.13;;;4.60;99.90;;;;;;5076741;28;20277;-67
2022/01/16 12:04:28;;;;;;;47.42;25.95;;;4.60;99.90;;;;;;5079396;28;20028;-66
2022/01/16 12:06:54;;;;;;;50.92;28.73;;;4.70;99.90;;;;;;5080789;28;20461;-65
2022/01/16 12:09:57;;;;;;;50.08;27.90;;;4.70;99.90;;;;;;5063335;28;20059;-64
2022/01/16 12:12:23;;;;;;;53.33;28.52;;;4.60;99.90;;;;;;5081177;28;20382;-61
2022/01/16 12:14:59;;;;;;;54.78;26.92;;;4.50;99.90;;;;;;5080711;28;20189;-62
2022/01/16 12:17:44;;;;;;;56.35;29.55;;;4.40;99.90;;;;;;5080656;28;20024;-62
2022/01/16 12:20:13;;;;;;;51.08;28.25;;;4.40;99.90;;;;;;5080661;28;20127;-64
2022/01/16 12:22:47;;;;;;;50.83;26.52;;;4.30;99.90;;;;;;5063093;28;20403;-64
2022/01/16 12:25:31;;;;;;;58.25;30.00;;;4.50;99.90;;;;;;5079642;28;20029;-63
2022/01/16 12:27:57;;;;;;;57.95;29.20;;;4.60;99.90;;;;;;5080440;28;20044;-64
2022/01/16 12:30:32;;;;;;;54.83;29.30;;;4.80;99.90;;;;;;5079618;28;20410;-64
2022/01/16 12:33:11;;;;;;;55.92;28.90;;;4.80;99.90;;;;;;5080004;28;20100;-67
2022/01/16 12:35:48;;;;;;;55.50;29.10;;;4.80;99.90;;;;;;5080189;28;20044;-65
2022/01/16 12:38:25;;;;;;;62.50;34.20;;;4.80;99.90;;;;;;5080222;28;20043;-63
2022/01/16 12:40:59;;;;;;;51.55;26.13;;;4.90;99.90;;;;;;5080783;28;20039;-63
2022/01/16 12:43:29;;;;;;;52.63;27.85;;;4.80;99.90;;;;;;5080105;28;20398;-63
2022/01/16 12:45:56;;;;;;;49.85;28.58;;;4.80;99.90;;;;;;5046495;28;20469;-64
2022/01/16 12:48:22;;;;;;;50.95;27.33;;;4.80;99.90;;;;;;5080010;28;20047;-63
2022/01/16 12:50:48;;;;;;;57.10;27.83;;;4.80;99.90;;;;;;5079343;28;20029;-62
2022/01/16 12:53:31;;;;;;;57.17;27.90;;;4.70;99.90;;;;;;5079177;28;20396;-63
2022/01/16 12:56:13;;;;;;;52.85;26.75;;;4.70;99.90;;;;;;5080490;28;20044;-64
2022/01/16 12:58:39;;;;;;;56.58;27.75;;;4.60;99.90;;;;;;5079910;28;20040;-64
2022/01/16 13:01:05;;;;;;;54.35;28.35;;;4.70;99.90;;;;;;5079830;28;20029;-61
2022/01/16 13:03:33;;;;;;;54.75;27.65;;;4.80;99.90;;;;;;5079671;28;20067;-64
2022/01/16 13:06:26;;;;;;;55.92;28.90;;;4.80;99.90;;;;;;5078837;28;20033;-63
2022/01/16 13:09:10;;;;;;;53.30;29.33;;;4.80;99.90;;;;;;5078966;28;20037;-65
2022/01/16 13:11:41;;;;;;;53.03;28.05;;;5.00;99.90;;;;;;5079633;28;20319;-64
2022/01/16 13:14:11;;;;;;;54.33;27.70;;;4.90;99.90;;;;;;5078751;28;20052;-65
2022/01/16 13:16:46;;;;;;;52.25;26.60;;;5.00;99.90;;;;;;5078567;28;20307;-66
2022/01/16 13:19:16;;;;;;;54.97;28.05;;;5.00;99.90;;;;;;5078674;28;20029;-66
2022/01/16 13:22:11;;;;;;;58.53;27.73;;;5.00;99.90;;;;;;5078921;28;20068;-66
2022/01/16 13:24:47;;;;;;;52.85;27.88;;;5.20;99.90;;;;;;5078834;28;20360;-66
2022/01/16 13:27:24;;;;;;;53.60;28.77;;;5.30;99.90;;;;;;5078603;28;20387;-65
2022/01/16 13:29:51;;;;;;;55.83;28.25;;;5.20;99.90;;;;;;5079291;28;20036;-65
2022/01/16 13:32:22;;;;;;;52.40;28.33;;;5.10;99.90;;;;;;5061737;28;20024;-64
2022/01/16 13:34:49;;;;;;;54.97;27.05;;;5.10;99.90;;;;;;5079107;28;20366;-65